sensor_id;sensor_type;location;lat;lon;timestamp;P1;durP1;ratioP1;P2;durP2;ratioP2
21258;SDS011;10787;53.364;-1.480;2023-04-24T00:01:46;8.83;;;3.37;;
21258;SDS011;10787;53.364;-1.480;2023-04-24T00:04:31;6.73;;;3.07;;
21258;SDS011;10787;53.364;-1.480;2023-04-24T00:07:16;7.60;;;3.23;;
21258;SDS011;10787;53.364;-1.480;2023-04-24T00:10:00;5.50;;;2.27;;
21258;SDS011;10787;53.364;-1.480;2023-04-24T00:12:45;7.27;;;2.10;;
21258;SDS011;10787;53.364;-1.480;2023-04-24T00:15:29;6.83;;;2.00;;
21258;SDS011;10787;53.364;-1.480;2023-04-24T00:18:14;3.87;;;2.00;;
21258;SDS011;10787;53.364;-1.480;2023-04-24T00:20:59;6.93;;;2.40;;
21258;SDS011;10787;53.364;-1.480;2023-04-24T00:23:44;5.93;;;2.30;;
21258;SDS011;10787;53.364;-1.480;2023-04-24T00:26:28;6.87;;;2.23;;
21258;SDS011;10787;53.364;-1.480;2023-04-24T00:29:13;6.83;;;2.40;;
21258;SDS011;10787;53.364;-1.480;2023-04-24T00:31:57;7.57;;;2.60;;
21258;SDS011;10787;53.364;-1.480;2023-04-24T00:34:42;5.77;;;2.20;;
21258;SDS011;10787;53.364;-1.480;2023-04-24T00:37:26;7.20;;;2.60;;
21258;SDS011;10787;53.364;-1.480;2023-04-24T00:40:11;5.17;;;2.40;;
21258;SDS011;10787;53.364;-1.480;2023-04-24T00:42:55;6.43;;;2.40;;
21258;SDS011;10787;53.364;-1.480;2023-04-24T00:45:40;4.60;;;2.03;;
21258;SDS011;10787;53.364;-1.480;2023-04-24T00:48:25;8.23;;;2.03;;
21258;SDS011;10787;53.364;-1.480;2023-04-24T00:51:11;6.27;;;2.40;;
21258;SDS011;10787;53.364;-1.480;2023-04-24T00:53:55;6.27;;;2.33;;
21258;SDS011;10787;53.364;-1.480;2023-04-24T00:56:40;7.03;;;2.10;;
21258;SDS011;10787;53.364;-1.480;2023-04-24T00:59:25;6.97;;;2.07;;
21258;SDS011;10787;53.364;-1.480;2023-04-24T01:02:10;8.47;;;2.30;;
21258;SDS011;10787;53.364;-1.480;2023-04-24T01:04:55;8.20;;;2.30;;
21258;SDS011;10787;53.364;-1.480;2023-04-24T01:07:43;5.93;;;2.20;;
21258;SDS011;10787;53.364;-1.480;2023-04-24T01:10:29;4.00;;;1.80;;
21258;SDS011;10787;53.364;-1.480;2023-04-24T01:13:16;4.40;;;2.03;;
21258;SDS011;10787;53.364;-1.480;2023-04-24T01:16:02;10.93;;;1.73;;
21258;SDS011;10787;53.364;-1.480;2023-04-24T01:18:46;8.27;;;1.80;;
21258;SDS011;10787;53.364;-1.480;2023-04-24T01:21:31;3.70;;;1.70;;
21258;SDS011;10787;53.364;-1.480;2023-04-24T01:24:20;8.77;;;2.00;;
21258;SDS011;10787;53.364;-1.480;2023-04-24T01:27:04;3.77;;;1.70;;
21258;SDS011;10787;53.364;-1.480;2023-04-24T01:29:49;5.77;;;1.90;;
21258;SDS011;10787;53.364;-1.480;2023-04-24T01:32:35;5.97;;;2.00;;
21258;SDS011;10787;53.364;-1.480;2023-04-24T01:35:20;6.77;;;1.67;;
21258;SDS011;10787;53.364;-1.480;2023-04-24T01:38:05;4.03;;;1.70;;
21258;SDS011;10787;53.364;-1.480;2023-04-24T01:40:49;5.47;;;2.07;;
21258;SDS011;10787;53.364;-1.480;2023-04-24T01:43:34;4.23;;;1.70;;
21258;SDS011;10787;53.364;-1.480;2023-04-24T01:46:19;5.63;;;1.90;;
21258;SDS011;10787;53.364;-1.480;2023-04-24T01:49:04;6.23;;;2.00;;
21258;SDS011;10787;53.364;-1.480;2023-04-24T01:51:48;4.63;;;1.80;;
21258;SDS011;10787;53.364;-1.480;2023-04-24T01:54:33;6.23;;;1.90;;
21258;SDS011;10787;53.364;-1.480;2023-04-24T01:57:17;5.80;;;1.77;;
21258;SDS011;10787;53.364;-1.480;2023-04-24T02:00:03;4.27;;;1.60;;
21258;SDS011;10787;53.364;-1.480;2023-04-24T02:02:48;4.87;;;1.60;;
21258;SDS011;10787;53.364;-1.480;2023-04-24T02:05:32;5.57;;;1.90;;
21258;SDS011;10787;53.364;-1.480;2023-04-24T02:08:18;3.87;;;1.50;;
21258;SDS011;10787;53.364;-1.480;2023-04-24T02:11:02;4.87;;;1.67;;
21258;SDS011;10787;53.364;-1.480;2023-04-24T02:13:47;4.17;;;1.70;;
21258;SDS011;10787;53.364;-1.480;2023-04-24T02:16:31;4.57;;;1.77;;
21258;SDS011;10787;53.364;-1.480;2023-04-24T02:19:16;3.17;;;1.40;;
21258;SDS011;10787;53.364;-1.480;2023-04-24T02:22:00;3.03;;;1.30;;
21258;SDS011;10787;53.364;-1.480;2023-04-24T02:24:44;5.17;;;1.77;;
21258;SDS011;10787;53.364;-1.480;2023-04-24T02:27:28;5.47;;;1.70;;
21258;SDS011;10787;53.364;-1.480;2023-04-24T02:30:13;5.20;;;1.60;;
21258;SDS011;10787;53.364;-1.480;2023-04-24T02:32:57;5.30;;;1.80;;
21258;SDS011;10787;53.364;-1.480;2023-04-24T02:35:41;6.50;;;1.90;;
21258;SDS011;10787;53.364;-1.480;2023-04-24T02:38:25;6.43;;;2.00;;
21258;SDS011;10787;53.364;-1.480;2023-04-24T02:41:10;6.37;;;1.70;;
21258;SDS011;10787;53.364;-1.480;2023-04-24T02:43:54;4.20;;;1.57;;
21258;SDS011;10787;53.364;-1.480;2023-04-24T02:46:38;6.20;;;1.60;;
21258;SDS011;10787;53.364;-1.480;2023-04-24T02:49:24;9.60;;;1.63;;
21258;SDS011;10787;53.364;-1.480;2023-04-24T02:52:09;4.50;;;1.90;;
21258;SDS011;10787;53.364;-1.480;2023-04-24T02:54:54;8.20;;;2.10;;
21258;SDS011;10787;53.364;-1.480;2023-04-24T02:57:39;4.90;;;1.50;;
21258;SDS011;10787;53.364;-1.480;2023-04-24T03:00:22;6.87;;;1.40;;
21258;SDS011;10787;53.364;-1.480;2023-04-24T03:03:07;6.80;;;1.80;;
21258;SDS011;10787;53.364;-1.480;2023-04-24T03:05:51;2.87;;;1.40;;
21258;SDS011;10787;53.364;-1.480;2023-04-24T03:08:36;4.40;;;1.70;;
21258;SDS011;10787;53.364;-1.480;2023-04-24T03:11:20;3.90;;;1.70;;
21258;SDS011;10787;53.364;-1.480;2023-04-24T03:14:05;6.43;;;1.70;;
21258;SDS011;10787;53.364;-1.480;2023-04-24T03:16:49;4.03;;;1.73;;
21258;SDS011;10787;53.364;-1.480;2023-04-24T03:19:34;7.23;;;2.20;;
21258;SDS011;10787;53.364;-1.480;2023-04-24T03:22:18;4.20;;;1.80;;
21258;SDS011;10787;53.364;-1.480;2023-04-24T03:25:02;5.67;;;1.70;;
21258;SDS011;10787;53.364;-1.480;2023-04-24T03:27:46;5.20;;;1.70;;
21258;SDS011;10787;53.364;-1.480;2023-04-24T03:30:31;5.50;;;1.80;;
21258;SDS011;10787;53.364;-1.480;2023-04-24T03:33:15;4.60;;;1.77;;
21258;SDS011;10787;53.364;-1.480;2023-04-24T03:35:59;5.83;;;1.80;;
21258;SDS011;10787;53.364;-1.480;2023-04-24T03:38:43;4.73;;;1.87;;
21258;SDS011;10787;53.364;-1.480;2023-04-24T03:41:27;5.93;;;1.60;;
21258;SDS011;10787;53.364;-1.480;2023-04-24T03:44:11;8.50;;;1.93;;
21258;SDS011;10787;53.364;-1.480;2023-04-24T03:46:55;6.33;;;1.63;;
21258;SDS011;10787;53.364;-1.480;2023-04-24T03:49:42;7.77;;;1.83;;
21258;SDS011;10787;53.364;-1.480;2023-04-24T03:52:25;5.87;;;2.00;;
21258;SDS011;10787;53.364;-1.480;2023-04-24T03:55:10;6.07;;;1.50;;
21258;SDS011;10787;53.364;-1.480;2023-04-24T03:57:56;6.40;;;2.00;;
21258;SDS011;10787;53.364;-1.480;2023-04-24T04:00:40;5.23;;;1.83;;
21258;SDS011;10787;53.364;-1.480;2023-04-24T04:03:25;6.87;;;1.87;;
21258;SDS011;10787;53.364;-1.480;2023-04-24T04:06:09;4.13;;;1.70;;
21258;SDS011;10787;53.364;-1.480;2023-04-24T04:08:54;6.30;;;1.77;;
21258;SDS011;10787;53.364;-1.480;2023-04-24T04:11:38;6.50;;;1.83;;
21258;SDS011;10787;53.364;-1.480;2023-04-24T04:14:23;4.97;;;1.73;;
21258;SDS011;10787;53.364;-1.480;2023-04-24T04:17:08;5.20;;;1.80;;
21258;SDS011;10787;53.364;-1.480;2023-04-24T04:19:52;6.90;;;1.90;;
21258;SDS011;10787;53.364;-1.480;2023-04-24T04:22:36;6.23;;;1.80;;
21258;SDS011;10787;53.364;-1.480;2023-04-24T04:25:21;6.60;;;1.67;;
21258;SDS011;10787;53.364;-1.480;2023-04-24T04:28:06;5.40;;;1.60;;
21258;SDS011;10787;53.364;-1.480;2023-04-24T04:30:50;6.20;;;1.93;;
21258;SDS011;10787;53.364;-1.480;2023-04-24T04:33:38;7.70;;;2.10;;
21258;SDS011;10787;53.364;-1.480;2023-04-24T04:36:22;5.13;;;1.57;;
21258;SDS011;10787;53.364;-1.480;2023-04-24T04:39:07;7.23;;;1.90;;
21258;SDS011;10787;53.364;-1.480;2023-04-24T04:41:52;5.73;;;1.90;;
21258;SDS011;10787;53.364;-1.480;2023-04-24T04:44:36;6.37;;;2.03;;
21258;SDS011;10787;53.364;-1.480;2023-04-24T04:47:22;9.27;;;1.90;;
21258;SDS011;10787;53.364;-1.480;2023-04-24T04:50:10;5.60;;;1.90;;
21258;SDS011;10787;53.364;-1.480;2023-04-24T04:52:54;7.47;;;1.80;;
21258;SDS011;10787;53.364;-1.480;2023-04-24T04:55:38;5.03;;;1.80;;
21258;SDS011;10787;53.364;-1.480;2023-04-24T04:58:23;7.47;;;2.17;;
21258;SDS011;10787;53.364;-1.480;2023-04-24T05:01:07;6.07;;;2.13;;
21258;SDS011;10787;53.364;-1.480;2023-04-24T05:03:52;4.70;;;1.70;;
21258;SDS011;10787;53.364;-1.480;2023-04-24T05:06:36;5.70;;;2.00;;
21258;SDS011;10787;53.364;-1.480;2023-04-24T05:09:21;6.10;;;1.80;;
21258;SDS011;10787;53.364;-1.480;2023-04-24T05:12:06;5.93;;;1.97;;
21258;SDS011;10787;53.364;-1.480;2023-04-24T05:14:51;4.30;;;1.53;;
21258;SDS011;10787;53.364;-1.480;2023-04-24T05:17:36;9.33;;;1.83;;
21258;SDS011;10787;53.364;-1.480;2023-04-24T05:20:20;5.00;;;1.70;;
21258;SDS011;10787;53.364;-1.480;2023-04-24T05:23:05;6.50;;;1.60;;
21258;SDS011;10787;53.364;-1.480;2023-04-24T05:25:50;6.43;;;2.03;;
21258;SDS011;10787;53.364;-1.480;2023-04-24T05:28:34;5.60;;;1.90;;
21258;SDS011;10787;53.364;-1.480;2023-04-24T05:31:20;7.13;;;1.93;;
21258;SDS011;10787;53.364;-1.480;2023-04-24T05:34:04;5.30;;;1.87;;
21258;SDS011;10787;53.364;-1.480;2023-04-24T05:36:49;5.63;;;2.00;;
21258;SDS011;10787;53.364;-1.480;2023-04-24T05:39:34;5.70;;;1.97;;
21258;SDS011;10787;53.364;-1.480;2023-04-24T05:42:19;4.73;;;1.87;;
21258;SDS011;10787;53.364;-1.480;2023-04-24T05:45:04;8.60;;;2.37;;
21258;SDS011;10787;53.364;-1.480;2023-04-24T05:47:49;7.67;;;2.30;;
21258;SDS011;10787;53.364;-1.480;2023-04-24T05:50:35;7.37;;;2.50;;
21258;SDS011;10787;53.364;-1.480;2023-04-24T05:53:19;8.57;;;2.30;;
21258;SDS011;10787;53.364;-1.480;2023-04-24T05:56:04;7.67;;;2.20;;
21258;SDS011;10787;53.364;-1.480;2023-04-24T05:58:49;5.80;;;2.20;;
21258;SDS011;10787;53.364;-1.480;2023-04-24T06:01:33;7.90;;;2.37;;
21258;SDS011;10787;53.364;-1.480;2023-04-24T06:04:19;6.23;;;2.07;;
21258;SDS011;10787;53.364;-1.480;2023-04-24T06:07:03;6.43;;;2.10;;
21258;SDS011;10787;53.364;-1.480;2023-04-24T06:09:48;9.03;;;2.57;;
21258;SDS011;10787;53.364;-1.480;2023-04-24T06:12:32;11.03;;;1.90;;
21258;SDS011;10787;53.364;-1.480;2023-04-24T06:15:17;7.67;;;2.10;;
21258;SDS011;10787;53.364;-1.480;2023-04-24T06:18:01;7.77;;;2.33;;
21258;SDS011;10787;53.364;-1.480;2023-04-24T06:20:46;9.17;;;2.30;;
21258;SDS011;10787;53.364;-1.480;2023-04-24T06:23:30;7.33;;;2.30;;
21258;SDS011;10787;53.364;-1.480;2023-04-24T06:26:16;11.13;;;2.60;;
21258;SDS011;10787;53.364;-1.480;2023-04-24T06:29:01;7.17;;;2.30;;
21258;SDS011;10787;53.364;-1.480;2023-04-24T06:31:45;8.97;;;2.70;;
21258;SDS011;10787;53.364;-1.480;2023-04-24T06:34:29;8.03;;;2.50;;
21258;SDS011;10787;53.364;-1.480;2023-04-24T06:37:14;8.30;;;2.60;;
21258;SDS011;10787;53.364;-1.480;2023-04-24T06:39:59;9.43;;;3.33;;
21258;SDS011;10787;53.364;-1.480;2023-04-24T06:42:43;9.23;;;3.13;;
21258;SDS011;10787;53.364;-1.480;2023-04-24T06:45:28;9.77;;;2.50;;
21258;SDS011;10787;53.364;-1.480;2023-04-24T06:48:13;10.63;;;2.90;;
21258;SDS011;10787;53.364;-1.480;2023-04-24T06:50:57;8.07;;;2.80;;
21258;SDS011;10787;53.364;-1.480;2023-04-24T06:53:41;10.03;;;3.17;;
21258;SDS011;10787;53.364;-1.480;2023-04-24T06:56:25;9.57;;;2.83;;
21258;SDS011;10787;53.364;-1.480;2023-04-24T06:59:10;10.80;;;2.87;;
21258;SDS011;10787;53.364;-1.480;2023-04-24T07:01:54;11.60;;;3.10;;
21258;SDS011;10787;53.364;-1.480;2023-04-24T07:04:39;11.80;;;3.17;;
21258;SDS011;10787;53.364;-1.480;2023-04-24T07:07:23;8.53;;;2.97;;
21258;SDS011;10787;53.364;-1.480;2023-04-24T07:10:07;12.70;;;3.30;;
21258;SDS011;10787;53.364;-1.480;2023-04-24T07:12:52;11.70;;;3.77;;
21258;SDS011;10787;53.364;-1.480;2023-04-24T07:15:37;13.83;;;3.50;;
21258;SDS011;10787;53.364;-1.480;2023-04-24T07:18:22;11.90;;;3.43;;
21258;SDS011;10787;53.364;-1.480;2023-04-24T07:21:06;11.17;;;3.83;;
21258;SDS011;10787;53.364;-1.480;2023-04-24T07:23:51;11.30;;;3.50;;
21258;SDS011;10787;53.364;-1.480;2023-04-24T07:26:36;10.87;;;3.20;;
21258;SDS011;10787;53.364;-1.480;2023-04-24T07:29:21;12.90;;;3.73;;
21258;SDS011;10787;53.364;-1.480;2023-04-24T07:32:05;19.00;;;3.53;;
21258;SDS011;10787;53.364;-1.480;2023-04-24T07:34:49;11.07;;;3.23;;
21258;SDS011;10787;53.364;-1.480;2023-04-24T07:37:33;10.17;;;3.50;;
21258;SDS011;10787;53.364;-1.480;2023-04-24T07:40:18;12.27;;;3.03;;
21258;SDS011;10787;53.364;-1.480;2023-04-24T07:43:02;12.93;;;3.30;;
21258;SDS011;10787;53.364;-1.480;2023-04-24T07:45:47;11.67;;;3.50;;
21258;SDS011;10787;53.364;-1.480;2023-04-24T07:48:31;9.97;;;3.43;;
21258;SDS011;10787;53.364;-1.480;2023-04-24T07:51:16;8.63;;;3.03;;
21258;SDS011;10787;53.364;-1.480;2023-04-24T07:54:00;12.33;;;3.33;;
21258;SDS011;10787;53.364;-1.480;2023-04-24T07:56:44;11.80;;;3.30;;
21258;SDS011;10787;53.364;-1.480;2023-04-24T07:59:28;10.40;;;3.30;;
21258;SDS011;10787;53.364;-1.480;2023-04-24T08:02:13;16.73;;;3.10;;
21258;SDS011;10787;53.364;-1.480;2023-04-24T08:04:58;12.13;;;3.40;;
21258;SDS011;10787;53.364;-1.480;2023-04-24T08:07:42;11.53;;;3.63;;
21258;SDS011;10787;53.364;-1.480;2023-04-24T08:10:28;9.07;;;3.23;;
21258;SDS011;10787;53.364;-1.480;2023-04-24T08:13:13;11.27;;;3.30;;
21258;SDS011;10787;53.364;-1.480;2023-04-24T08:15:58;10.53;;;3.30;;
21258;SDS011;10787;53.364;-1.480;2023-04-24T08:18:42;8.20;;;3.27;;
21258;SDS011;10787;53.364;-1.480;2023-04-24T08:21:26;12.83;;;3.10;;
21258;SDS011;10787;53.364;-1.480;2023-04-24T08:24:10;11.40;;;3.13;;
21258;SDS011;10787;53.364;-1.480;2023-04-24T08:26:54;10.93;;;3.63;;
21258;SDS011;10787;53.364;-1.480;2023-04-24T08:29:41;10.40;;;3.07;;
21258;SDS011;10787;53.364;-1.480;2023-04-24T08:32:26;7.83;;;2.90;;
21258;SDS011;10787;53.364;-1.480;2023-04-24T08:35:12;8.97;;;3.20;;
21258;SDS011;10787;53.364;-1.480;2023-04-24T08:37:57;11.80;;;3.47;;
21258;SDS011;10787;53.364;-1.480;2023-04-24T08:40:41;11.20;;;3.40;;
21258;SDS011;10787;53.364;-1.480;2023-04-24T08:43:26;10.87;;;3.40;;
21258;SDS011;10787;53.364;-1.480;2023-04-24T08:46:11;12.03;;;3.40;;
21258;SDS011;10787;53.364;-1.480;2023-04-24T08:48:56;12.27;;;2.87;;
21258;SDS011;10787;53.364;-1.480;2023-04-24T08:51:42;9.27;;;3.37;;
21258;SDS011;10787;53.364;-1.480;2023-04-24T08:54:26;11.13;;;3.67;;
21258;SDS011;10787;53.364;-1.480;2023-04-24T08:57:11;8.27;;;3.00;;
21258;SDS011;10787;53.364;-1.480;2023-04-24T08:59:58;10.73;;;3.23;;
21258;SDS011;10787;53.364;-1.480;2023-04-24T09:02:44;10.93;;;3.47;;
21258;SDS011;10787;53.364;-1.480;2023-04-24T09:05:30;12.60;;;3.30;;
21258;SDS011;10787;53.364;-1.480;2023-04-24T09:08:18;9.73;;;3.43;;
21258;SDS011;10787;53.364;-1.480;2023-04-24T09:11:04;11.60;;;3.40;;
21258;SDS011;10787;53.364;-1.480;2023-04-24T09:13:48;12.10;;;4.00;;
21258;SDS011;10787;53.364;-1.480;2023-04-24T09:16:33;11.30;;;3.47;;
21258;SDS011;10787;53.364;-1.480;2023-04-24T09:19:18;12.97;;;3.60;;
21258;SDS011;10787;53.364;-1.480;2023-04-24T09:22:06;11.87;;;3.60;;
21258;SDS011;10787;53.364;-1.480;2023-04-24T09:25:04;13.07;;;3.63;;
21258;SDS011;10787;53.364;-1.480;2023-04-24T09:27:53;12.57;;;3.73;;
21258;SDS011;10787;53.364;-1.480;2023-04-24T09:30:38;16.10;;;3.60;;
21258;SDS011;10787;53.364;-1.480;2023-04-24T09:33:22;13.43;;;3.93;;
21258;SDS011;10787;53.364;-1.480;2023-04-24T09:36:06;12.63;;;3.87;;
21258;SDS011;10787;53.364;-1.480;2023-04-24T09:38:53;12.23;;;3.40;;
21258;SDS011;10787;53.364;-1.480;2023-04-24T09:41:51;10.03;;;3.70;;
21258;SDS011;10787;53.364;-1.480;2023-04-24T09:44:37;16.67;;;4.50;;
21258;SDS011;10787;53.364;-1.480;2023-04-24T09:47:21;14.80;;;3.87;;
21258;SDS011;10787;53.364;-1.480;2023-04-24T09:50:09;12.07;;;3.80;;
21258;SDS011;10787;53.364;-1.480;2023-04-24T09:52:58;10.63;;;3.50;;
21258;SDS011;10787;53.364;-1.480;2023-04-24T09:55:45;9.90;;;3.60;;
21258;SDS011;10787;53.364;-1.480;2023-04-24T09:58:31;15.10;;;5.37;;
21258;SDS011;10787;53.364;-1.480;2023-04-24T10:01:15;15.37;;;4.00;;
21258;SDS011;10787;53.364;-1.480;2023-04-24T10:04:00;10.73;;;3.73;;
21258;SDS011;10787;53.364;-1.480;2023-04-24T10:06:45;9.90;;;3.40;;
21258;SDS011;10787;53.364;-1.480;2023-04-24T10:09:30;10.03;;;3.50;;
21258;SDS011;10787;53.364;-1.480;2023-04-24T10:12:15;9.40;;;3.47;;
21258;SDS011;10787;53.364;-1.480;2023-04-24T10:15:00;11.80;;;3.50;;
21258;SDS011;10787;53.364;-1.480;2023-04-24T10:17:50;14.03;;;3.70;;
21258;SDS011;10787;53.364;-1.480;2023-04-24T10:20:38;13.23;;;4.00;;
21258;SDS011;10787;53.364;-1.480;2023-04-24T10:23:24;7.53;;;2.90;;
21258;SDS011;10787;53.364;-1.480;2023-04-24T10:26:09;10.93;;;3.03;;
21258;SDS011;10787;53.364;-1.480;2023-04-24T10:29:00;8.32;;;3.33;;
21258;SDS011;10787;53.364;-1.480;2023-04-24T10:31:45;10.68;;;3.58;;
21258;SDS011;10787;53.364;-1.480;2023-04-24T10:34:29;8.43;;;2.97;;
21258;SDS011;10787;53.364;-1.480;2023-04-24T10:37:13;11.40;;;3.63;;
21258;SDS011;10787;53.364;-1.480;2023-04-24T10:39:58;6.67;;;2.73;;
21258;SDS011;10787;53.364;-1.480;2023-04-24T10:42:46;7.53;;;2.80;;
21258;SDS011;10787;53.364;-1.480;2023-04-24T10:45:31;7.90;;;3.23;;
21258;SDS011;10787;53.364;-1.480;2023-04-24T10:48:15;7.47;;;2.83;;
21258;SDS011;10787;53.364;-1.480;2023-04-24T10:51:48;10.60;;;3.30;;
21258;SDS011;10787;53.364;-1.480;2023-04-24T10:55:01;7.50;;;3.00;;
21258;SDS011;10787;53.364;-1.480;2023-04-24T10:58:02;11.10;;;3.10;;
21258;SDS011;10787;53.364;-1.480;2023-04-24T11:00:55;10.85;;;3.78;;
21258;SDS011;10787;53.364;-1.480;2023-04-24T11:03:40;8.33;;;3.73;;
21258;SDS011;10787;53.364;-1.480;2023-04-24T11:06:37;10.80;;;3.78;;
21258;SDS011;10787;53.364;-1.480;2023-04-24T11:09:26;7.97;;;4.03;;
21258;SDS011;10787;53.364;-1.480;2023-04-24T11:12:12;9.82;;;4.47;;
21258;SDS011;10787;53.364;-1.480;2023-04-24T11:17:43;10.02;;;3.50;;
21258;SDS011;10787;53.364;-1.480;2023-04-24T11:20:27;10.65;;;3.70;;
21258;SDS011;10787;53.364;-1.480;2023-04-24T11:23:12;11.23;;;3.72;;
21258;SDS011;10787;53.364;-1.480;2023-04-24T11:29:20;7.73;;;3.23;;
21258;SDS011;10787;53.364;-1.480;2023-04-24T11:32:15;10.13;;;3.80;;
21258;SDS011;10787;53.364;-1.480;2023-04-24T11:35:06;10.03;;;3.80;;
21258;SDS011;10787;53.364;-1.480;2023-04-24T11:37:57;9.47;;;3.87;;
21258;SDS011;10787;53.364;-1.480;2023-04-24T11:40:42;10.73;;;3.63;;
21258;SDS011;10787;53.364;-1.480;2023-04-24T11:43:28;10.37;;;3.40;;
21258;SDS011;10787;53.364;-1.480;2023-04-24T11:46:16;11.93;;;3.90;;
21258;SDS011;10787;53.364;-1.480;2023-04-24T11:49:01;9.43;;;3.83;;
21258;SDS011;10787;53.364;-1.480;2023-04-24T11:51:45;7.32;;;3.30;;
21258;SDS011;10787;53.364;-1.480;2023-04-24T11:54:29;8.80;;;3.20;;
21258;SDS011;10787;53.364;-1.480;2023-04-24T11:57:13;11.77;;;3.63;;
21258;SDS011;10787;53.364;-1.480;2023-04-24T11:59:58;10.93;;;3.23;;
21258;SDS011;10787;53.364;-1.480;2023-04-24T12:02:44;7.45;;;3.10;;
21258;SDS011;10787;53.364;-1.480;2023-04-24T12:05:28;9.83;;;3.90;;
21258;SDS011;10787;53.364;-1.480;2023-04-24T12:08:33;8.23;;;2.63;;
21258;SDS011;10787;53.364;-1.480;2023-04-24T12:11:17;7.60;;;2.97;;
21258;SDS011;10787;53.364;-1.480;2023-04-24T12:14:11;9.90;;;2.83;;
21258;SDS011;10787;53.364;-1.480;2023-04-24T12:16:56;10.77;;;2.80;;
21258;SDS011;10787;53.364;-1.480;2023-04-24T12:19:49;5.40;;;2.60;;
21258;SDS011;10787;53.364;-1.480;2023-04-24T12:25:34;7.23;;;2.50;;
21258;SDS011;10787;53.364;-1.480;2023-04-24T12:28:37;7.95;;;2.80;;
21258;SDS011;10787;53.364;-1.480;2023-04-24T12:31:22;8.60;;;2.53;;
21258;SDS011;10787;53.364;-1.480;2023-04-24T12:37:24;4.88;;;2.80;;
21258;SDS011;10787;53.364;-1.480;2023-04-24T12:40:10;5.90;;;2.67;;
21258;SDS011;10787;53.364;-1.480;2023-04-24T12:43:14;6.97;;;2.60;;
21258;SDS011;10787;53.364;-1.480;2023-04-24T12:46:00;5.88;;;2.45;;
21258;SDS011;10787;53.364;-1.480;2023-04-24T12:48:45;6.43;;;2.53;;
21258;SDS011;10787;53.364;-1.480;2023-04-24T12:51:29;7.38;;;2.60;;
21258;SDS011;10787;53.364;-1.480;2023-04-24T12:54:13;7.55;;;2.72;;
21258;SDS011;10787;53.364;-1.480;2023-04-24T12:56:57;8.05;;;2.22;;
21258;SDS011;10787;53.364;-1.480;2023-04-24T12:59:42;7.35;;;2.28;;
21258;SDS011;10787;53.364;-1.480;2023-04-24T13:02:28;6.13;;;2.10;;
21258;SDS011;10787;53.364;-1.480;2023-04-24T13:05:14;6.63;;;2.35;;
21258;SDS011;10787;53.364;-1.480;2023-04-24T13:07:59;8.10;;;2.90;;
21258;SDS011;10787;53.364;-1.480;2023-04-24T13:10:43;6.25;;;2.67;;
21258;SDS011;10787;53.364;-1.480;2023-04-24T13:13:28;7.63;;;2.60;;
21258;SDS011;10787;53.364;-1.480;2023-04-24T13:16:13;9.68;;;3.10;;
21258;SDS011;10787;53.364;-1.480;2023-04-24T13:18:57;9.43;;;3.63;;
21258;SDS011;10787;53.364;-1.480;2023-04-24T13:21:41;8.07;;;3.15;;
21258;SDS011;10787;53.364;-1.480;2023-04-24T13:24:26;5.85;;;2.78;;
21258;SDS011;10787;53.364;-1.480;2023-04-24T13:27:10;10.70;;;3.22;;
21258;SDS011;10787;53.364;-1.480;2023-04-24T13:29:54;6.38;;;3.40;;
21258;SDS011;10787;53.364;-1.480;2023-04-24T13:32:39;11.93;;;3.70;;
21258;SDS011;10787;53.364;-1.480;2023-04-24T13:35:23;9.35;;;3.55;;
21258;SDS011;10787;53.364;-1.480;2023-04-24T13:38:08;8.13;;;3.30;;
21258;SDS011;10787;53.364;-1.480;2023-04-24T13:40:52;11.82;;;3.60;;
21258;SDS011;10787;53.364;-1.480;2023-04-24T13:43:37;10.55;;;3.70;;
21258;SDS011;10787;53.364;-1.480;2023-04-24T13:46:21;8.55;;;3.55;;
21258;SDS011;10787;53.364;-1.480;2023-04-24T13:49:05;10.10;;;3.17;;
21258;SDS011;10787;53.364;-1.480;2023-04-24T13:51:50;5.77;;;2.80;;
21258;SDS011;10787;53.364;-1.480;2023-04-24T13:54:35;7.87;;;3.00;;
21258;SDS011;10787;53.364;-1.480;2023-04-24T13:57:19;8.20;;;2.73;;
21258;SDS011;10787;53.364;-1.480;2023-04-24T14:00:04;7.63;;;2.90;;
21258;SDS011;10787;53.364;-1.480;2023-04-24T14:02:53;8.57;;;2.80;;
21258;SDS011;10787;53.364;-1.480;2023-04-24T14:05:38;7.77;;;2.47;;
21258;SDS011;10787;53.364;-1.480;2023-04-24T14:08:22;12.70;;;3.30;;
21258;SDS011;10787;53.364;-1.480;2023-04-24T14:11:07;11.30;;;4.33;;
21258;SDS011;10787;53.364;-1.480;2023-04-24T14:13:51;12.27;;;4.03;;
21258;SDS011;10787;53.364;-1.480;2023-04-24T14:16:36;11.17;;;3.87;;
21258;SDS011;10787;53.364;-1.480;2023-04-24T14:19:20;13.20;;;4.40;;
21258;SDS011;10787;53.364;-1.480;2023-04-24T14:22:05;11.33;;;3.53;;
21258;SDS011;10787;53.364;-1.480;2023-04-24T14:24:49;10.93;;;3.77;;
21258;SDS011;10787;53.364;-1.480;2023-04-24T14:27:33;15.03;;;4.07;;
21258;SDS011;10787;53.364;-1.480;2023-04-24T14:30:18;15.17;;;3.77;;
21258;SDS011;10787;53.364;-1.480;2023-04-24T14:33:03;12.03;;;3.83;;
21258;SDS011;10787;53.364;-1.480;2023-04-24T14:35:47;9.37;;;4.03;;
21258;SDS011;10787;53.364;-1.480;2023-04-24T14:38:32;9.97;;;3.20;;
21258;SDS011;10787;53.364;-1.480;2023-04-24T14:41:16;10.87;;;2.90;;
21258;SDS011;10787;53.364;-1.480;2023-04-24T14:44:01;9.50;;;3.00;;
21258;SDS011;10787;53.364;-1.480;2023-04-24T14:46:46;10.80;;;3.40;;
21258;SDS011;10787;53.364;-1.480;2023-04-24T14:49:31;8.13;;;2.60;;
21258;SDS011;10787;53.364;-1.480;2023-04-24T14:52:16;9.90;;;2.90;;
21258;SDS011;10787;53.364;-1.480;2023-04-24T14:55:00;12.47;;;4.00;;
21258;SDS011;10787;53.364;-1.480;2023-04-24T14:57:44;12.40;;;4.87;;
21258;SDS011;10787;53.364;-1.480;2023-04-24T15:00:28;11.27;;;3.50;;
21258;SDS011;10787;53.364;-1.480;2023-04-24T15:03:12;7.47;;;3.37;;
21258;SDS011;10787;53.364;-1.480;2023-04-24T15:05:57;10.33;;;4.00;;
21258;SDS011;10787;53.364;-1.480;2023-04-24T15:08:42;6.70;;;2.57;;
21258;SDS011;10787;53.364;-1.480;2023-04-24T15:11:26;7.70;;;2.87;;
21258;SDS011;10787;53.364;-1.480;2023-04-24T15:14:11;9.67;;;3.30;;
21258;SDS011;10787;53.364;-1.480;2023-04-24T15:16:55;7.57;;;3.03;;
21258;SDS011;10787;53.364;-1.480;2023-04-24T15:19:39;6.77;;;3.00;;
21258;SDS011;10787;53.364;-1.480;2023-04-24T15:22:24;8.60;;;2.60;;
21258;SDS011;10787;53.364;-1.480;2023-04-24T15:25:09;8.27;;;2.90;;
21258;SDS011;10787;53.364;-1.480;2023-04-24T15:27:53;8.77;;;3.33;;
21258;SDS011;10787;53.364;-1.480;2023-04-24T15:30:38;11.23;;;3.40;;
21258;SDS011;10787;53.364;-1.480;2023-04-24T15:33:22;9.37;;;3.03;;
21258;SDS011;10787;53.364;-1.480;2023-04-24T15:36:07;10.47;;;3.23;;
21258;SDS011;10787;53.364;-1.480;2023-04-24T15:38:51;11.83;;;3.40;;
21258;SDS011;10787;53.364;-1.480;2023-04-24T15:41:35;9.07;;;3.40;;
21258;SDS011;10787;53.364;-1.480;2023-04-24T15:44:20;10.77;;;3.60;;
21258;SDS011;10787;53.364;-1.480;2023-04-24T15:47:05;12.13;;;3.93;;
21258;SDS011;10787;53.364;-1.480;2023-04-24T15:49:49;9.10;;;3.73;;
21258;SDS011;10787;53.364;-1.480;2023-04-24T15:52:36;11.60;;;3.80;;
21258;SDS011;10787;53.364;-1.480;2023-04-24T15:55:20;9.17;;;2.63;;
21258;SDS011;10787;53.364;-1.480;2023-04-24T15:58:04;8.10;;;2.97;;
21258;SDS011;10787;53.364;-1.480;2023-04-24T16:00:49;10.27;;;2.80;;
21258;SDS011;10787;53.364;-1.480;2023-04-24T16:03:34;8.37;;;2.80;;
21258;SDS011;10787;53.364;-1.480;2023-04-24T16:06:18;12.47;;;3.50;;
21258;SDS011;10787;53.364;-1.480;2023-04-24T16:09:02;9.23;;;3.83;;
21258;SDS011;10787;53.364;-1.480;2023-04-24T16:11:47;9.57;;;3.37;;
21258;SDS011;10787;53.364;-1.480;2023-04-24T16:14:32;8.87;;;3.63;;
21258;SDS011;10787;53.364;-1.480;2023-04-24T16:17:17;11.13;;;3.43;;
21258;SDS011;10787;53.364;-1.480;2023-04-24T16:20:02;12.90;;;3.97;;
21258;SDS011;10787;53.364;-1.480;2023-04-24T16:22:48;12.03;;;3.67;;
21258;SDS011;10787;53.364;-1.480;2023-04-24T16:25:32;12.93;;;4.00;;
21258;SDS011;10787;53.364;-1.480;2023-04-24T16:28:17;10.60;;;3.83;;
21258;SDS011;10787;53.364;-1.480;2023-04-24T16:31:02;11.07;;;3.80;;